createdAt,value
2022-11-13T00:01:06.951Z,99.90
2022-11-13T00:03:33.596Z,99.90
2022-11-13T00:06:01.558Z,99.90
2022-11-13T00:08:28.617Z,99.90
2022-11-13T00:11:14.920Z,99.90
2022-11-13T00:13:42.966Z,99.90
2022-11-13T00:16:15.364Z,99.90
2022-11-13T00:18:42.883Z,99.90
2022-11-13T00:21:29.857Z,99.90
2022-11-13T00:23:56.932Z,99.90
2022-11-13T00:26:26.841Z,99.90
2022-11-13T00:28:55.794Z,99.90
2022-11-13T00:31:22.978Z,99.90
2022-11-13T00:36:36.563Z,99.90
2022-11-13T00:39:03.492Z,99.90
2022-11-13T00:41:30.126Z,99.90
2022-11-13T00:43:56.834Z,99.90
2022-11-13T00:46:23.665Z,99.90
2022-11-13T00:48:50.311Z,99.90
2022-11-13T00:51:17.086Z,99.90
2022-11-13T00:53:43.749Z,99.90
2022-11-13T00:56:10.410Z,99.90
2022-11-13T00:58:37.092Z,99.90
2022-11-13T01:01:10.840Z,99.90
2022-11-13T01:03:37.609Z,99.90
2022-11-13T01:06:21.323Z,99.90
2022-11-13T01:08:48.692Z,99.90
2022-11-13T01:11:20.721Z,99.90
2022-11-13T01:13:49.987Z,99.90
2022-11-13T01:16:19.491Z,99.90
2022-11-13T01:18:46.716Z,99.90
2022-11-13T01:21:18.831Z,99.90
2022-11-13T01:23:45.891Z,99.90
2022-11-13T01:26:14.586Z,99.90
2022-11-13T01:28:42.812Z,99.90
2022-11-13T01:31:12.222Z,99.90
2022-11-13T01:33:38.870Z,99.90
2022-11-13T01:36:08.445Z,99.90
2022-11-13T01:38:36.938Z,99.90
2022-11-13T01:41:05.568Z,99.90
2022-11-13T01:43:36.415Z,99.90
2022-11-13T01:46:14.284Z,99.90
2022-11-13T01:48:45.235Z,99.90
2022-11-13T01:51:16.699Z,99.90
2022-11-13T01:53:45.759Z,99.90
2022-11-13T01:56:12.977Z,99.90
2022-11-13T01:58:42.249Z,99.90
2022-11-13T02:01:09.138Z,99.90
2022-11-13T02:03:36.139Z,99.90
2022-11-13T02:06:02.998Z,99.90
2022-11-13T02:08:30.099Z,99.90
2022-11-13T02:10:57.092Z,99.90
2022-11-13T02:13:24.428Z,99.90
2022-11-13T02:15:51.629Z,99.90
2022-11-13T02:18:21.070Z,99.90
2022-11-13T02:21:05.702Z,99.90
2022-11-13T02:23:38.372Z,99.90
2022-11-13T02:26:05.987Z,99.90
2022-11-13T02:28:32.578Z,99.90
2022-11-13T02:31:11.428Z,99.90
2022-11-13T02:33:38.183Z,99.90
2022-11-13T02:36:07.009Z,99.90
2022-11-13T02:38:36.158Z,99.90
2022-11-13T02:41:03.001Z,99.90
2022-11-13T02:43:29.754Z,99.90
2022-11-13T02:45:56.360Z,99.90
2022-11-13T02:48:23.222Z,99.90
2022-11-13T02:50:50.181Z,99.90
2022-11-13T02:53:16.795Z,99.90
2022-11-13T02:55:43.423Z,99.90
2022-11-13T02:58:10.248Z,99.90
2022-11-13T03:00:36.836Z,99.90
2022-11-13T03:03:03.492Z,99.90
2022-11-13T03:05:30.112Z,99.90
2022-11-13T03:07:56.744Z,99.90
2022-11-13T03:10:23.388Z,99.90
2022-11-13T03:12:50.099Z,99.90
2022-11-13T03:15:16.878Z,99.90
2022-11-13T03:17:43.595Z,99.90
2022-11-13T03:20:10.335Z,99.90
2022-11-13T03:22:37.071Z,99.90
2022-11-13T03:25:09.894Z,99.90
2022-11-13T03:27:37.276Z,99.90
2022-11-13T03:30:05.344Z,99.90
2022-11-13T03:32:32.002Z,99.90
2022-11-13T03:34:58.670Z,99.90
2022-11-13T03:37:25.273Z,99.90
2022-11-13T03:39:51.882Z,99.90
2022-11-13T03:42:18.498Z,99.90
2022-11-13T03:44:45.159Z,99.90
2022-11-13T03:47:11.906Z,99.90
2022-11-13T03:49:38.497Z,99.90
2022-11-13T03:52:05.243Z,99.90
2022-11-13T03:54:31.869Z,99.90
2022-11-13T03:56:58.559Z,99.90
2022-11-13T03:59:25.173Z,99.90
2022-11-13T04:01:51.912Z,99.90
2022-11-13T04:04:18.622Z,99.90
2022-11-13T04:06:45.299Z,99.90
2022-11-13T04:09:12.097Z,99.90
2022-11-13T04:11:38.681Z,99.90
2022-11-13T04:14:05.295Z,99.90
2022-11-13T04:16:31.906Z,99.90
2022-11-13T04:18:58.515Z,99.90
2022-11-13T04:21:25.360Z,99.90
2022-11-13T04:23:51.980Z,99.90
2022-11-13T04:26:18.676Z,99.90
2022-11-13T04:28:45.290Z,99.90
2022-11-13T04:31:11.895Z,99.90
2022-11-13T04:33:38.549Z,99.90
2022-11-13T04:36:05.423Z,99.90
2022-11-13T04:38:32.232Z,99.90
2022-11-13T04:41:17.683Z,99.90
2022-11-13T04:43:44.276Z,99.90
2022-11-13T04:46:10.864Z,99.90
2022-11-13T04:48:37.481Z,99.90
2022-11-13T04:51:04.328Z,99.90
2022-11-13T04:53:30.950Z,99.90
2022-11-13T04:55:57.616Z,99.90
2022-11-13T04:58:24.295Z,99.90
2022-11-13T05:00:50.909Z,99.90
2022-11-13T05:03:17.509Z,99.90
2022-11-13T05:05:44.157Z,99.90
2022-11-13T05:08:10.802Z,99.90
2022-11-13T05:10:37.426Z,99.90
2022-11-13T05:13:04.078Z,99.90
2022-11-13T05:15:30.694Z,99.90
2022-11-13T05:17:57.395Z,99.90
2022-11-13T05:20:24.001Z,99.90
2022-11-13T05:22:50.627Z,99.90
2022-11-13T05:25:17.220Z,99.90
2022-11-13T05:27:43.823Z,99.90
2022-11-13T05:30:10.693Z,99.90
2022-11-13T05:32:37.334Z,99.90
2022-11-13T05:35:04.359Z,99.90
2022-11-13T05:37:30.972Z,99.90
2022-11-13T05:39:57.583Z,99.90
2022-11-13T05:42:24.255Z,99.90
2022-11-13T05:44:50.916Z,99.90
2022-11-13T05:47:17.513Z,99.90
2022-11-13T05:49:44.457Z,99.90
2022-11-13T05:52:11.169Z,99.90
2022-11-13T05:54:37.777Z,99.90
2022-11-13T05:57:04.382Z,99.90
2022-11-13T05:59:31.012Z,99.90
2022-11-13T06:01:58.028Z,99.90
2022-11-13T06:04:24.792Z,99.90
2022-11-13T06:06:52.345Z,99.90
2022-11-13T06:09:19.012Z,99.90
2022-11-13T06:11:45.691Z,99.90
2022-11-13T06:14:12.540Z,99.90
2022-11-13T06:16:39.587Z,99.90
2022-11-13T06:19:09.030Z,99.90
2022-11-13T06:21:38.802Z,99.90
2022-11-13T06:24:06.299Z,99.90
2022-11-13T06:26:35.287Z,99.90
2022-11-13T06:29:03.896Z,99.90
2022-11-13T06:31:33.339Z,99.90
2022-11-13T06:34:00.622Z,99.90
2022-11-13T06:36:33.631Z,99.90
2022-11-13T06:39:01.008Z,99.90
2022-11-13T06:41:31.130Z,99.90
2022-11-13T06:44:02.721Z,99.90
2022-11-13T06:46:31.150Z,99.90
2022-11-13T06:48:58.152Z,99.90
2022-11-13T06:51:27.356Z,99.90
2022-11-13T06:53:54.718Z,99.90
2022-11-13T06:56:22.322Z,99.90
2022-11-13T06:58:49.285Z,99.90
2022-11-13T07:01:21.155Z,99.90
2022-11-13T07:03:48.506Z,99.90
2022-11-13T07:06:18.106Z,99.90
2022-11-13T07:08:45.524Z,99.90
2022-11-13T07:11:17.193Z,99.90
2022-11-13T07:13:44.476Z,99.90
2022-11-13T07:16:17.536Z,99.90
2022-11-13T07:18:52.130Z,99.90
2022-11-13T07:21:19.832Z,99.90
2022-11-13T07:23:48.717Z,99.90
2022-11-13T07:26:15.589Z,99.90
2022-11-13T07:28:42.290Z,99.90
2022-11-13T07:31:10.960Z,99.90
2022-11-13T07:33:37.647Z,99.90
2022-11-13T07:36:04.924Z,99.90
2022-11-13T07:38:31.975Z,99.90
2022-11-13T07:40:59.397Z,99.90
2022-11-13T07:43:26.285Z,99.90
2022-11-13T07:45:54.804Z,99.90
2022-11-13T07:48:22.968Z,99.90
2022-11-13T07:50:50.503Z,99.90
2022-11-13T07:53:18.016Z,99.90
2022-11-13T07:55:44.666Z,99.90
2022-11-13T07:58:11.792Z,99.90
2022-11-13T08:00:38.894Z,99.90
2022-11-13T08:03:08.045Z,99.90
2022-11-13T08:05:35.130Z,99.90
2022-11-13T08:08:02.273Z,99.90
2022-11-13T08:10:29.078Z,99.90
2022-11-13T08:13:08.583Z,99.90
2022-11-13T08:15:35.448Z,99.90
2022-11-13T08:18:03.841Z,99.90
2022-11-13T08:20:31.285Z,99.90
2022-11-13T08:22:59.599Z,99.90
2022-11-13T08:25:27.005Z,99.90
2022-11-13T08:27:54.497Z,99.90
2022-11-13T08:30:21.542Z,99.90
2022-11-13T08:32:48.883Z,99.90
2022-11-13T08:35:19.232Z,99.90
2022-11-13T08:37:47.009Z,99.90
2022-11-13T08:40:13.760Z,99.90
2022-11-13T08:42:40.508Z,99.90
2022-11-13T08:45:08.127Z,99.90
2022-11-13T08:47:34.801Z,99.90
2022-11-13T08:50:02.014Z,99.90
2022-11-13T08:52:28.720Z,99.90
2022-11-13T08:54:55.679Z,99.90
2022-11-13T08:57:22.320Z,99.90
2022-11-13T08:59:49.292Z,99.90
2022-11-13T09:02:16.386Z,99.90
2022-11-13T09:04:43.286Z,99.90
2022-11-13T09:07:11.465Z,99.90
2022-11-13T09:09:38.236Z,99.90
2022-11-13T09:12:05.297Z,99.90
2022-11-13T09:14:32.026Z,99.90
2022-11-13T09:16:58.782Z,99.90
2022-11-13T09:19:25.936Z,99.90
2022-11-13T09:21:53.216Z,99.90
2022-11-13T09:24:19.926Z,99.90
2022-11-13T09:26:46.579Z,99.90
2022-11-13T09:29:13.273Z,99.90
2022-11-13T09:31:41.150Z,99.90
2022-11-13T09:34:09.224Z,99.90
2022-11-13T09:36:36.856Z,99.90
2022-11-13T09:39:04.910Z,99.90
2022-11-13T09:41:36.107Z,99.90
2022-11-13T09:44:06.088Z,99.90
2022-11-13T09:46:38.584Z,99.90
2022-11-13T09:49:05.276Z,99.90
2022-11-13T09:51:37.282Z,99.90
2022-11-13T09:54:07.077Z,99.90
2022-11-13T09:56:39.541Z,99.90
2022-11-13T09:59:26.367Z,99.90
2022-11-13T10:02:22.009Z,99.90
2022-11-13T10:05:07.142Z,99.90
2022-11-13T10:07:46.779Z,99.90
2022-11-13T10:10:31.361Z,99.90
2022-11-13T10:13:00.191Z,99.90
2022-11-13T10:15:27.621Z,99.90
2022-11-13T10:17:57.183Z,99.90
2022-11-13T10:20:29.862Z,99.90
2022-11-13T10:23:13.404Z,99.90
2022-11-13T10:25:42.532Z,99.90
2022-11-13T10:28:48.884Z,99.90
2022-11-13T10:31:05.837Z,99.90
2022-11-13T10:33:32.509Z,99.90
2022-11-13T10:36:14.914Z,99.90
2022-11-13T10:39:08.628Z,99.90
2022-11-13T10:41:47.568Z,99.90
2022-11-13T10:44:30.874Z,99.90
2022-11-13T10:47:19.843Z,99.90
2022-11-13T10:50:08.615Z,99.90
2022-11-13T10:52:45.179Z,99.90
2022-11-13T10:55:33.415Z,99.90
2022-11-13T10:58:03.141Z,99.90
2022-11-13T11:00:39.797Z,99.90
2022-11-13T11:03:22.372Z,99.90
2022-11-13T11:05:53.220Z,99.90
2022-11-13T11:08:32.928Z,99.90
2022-11-13T11:11:37.623Z,99.90
2022-11-13T11:14:24.319Z,99.90
2022-11-13T11:16:53.260Z,99.90
2022-11-13T11:19:25.278Z,99.90
2022-11-13T11:22:06.533Z,99.90
2022-11-13T11:24:38.065Z,99.90
2022-11-13T11:27:23.022Z,99.90
2022-11-13T11:29:58.986Z,99.90
2022-11-13T11:32:34.367Z,99.90
2022-11-13T11:35:12.092Z,99.90
2022-11-13T11:37:48.883Z,99.90
2022-11-13T11:40:30.810Z,99.90
2022-11-13T11:43:19.788Z,99.90
2022-11-13T11:45:47.360Z,99.90
2022-11-13T11:48:17.510Z,99.90
2022-11-13T11:51:21.519Z,99.90
2022-11-13T11:53:50.918Z,99.90
2022-11-13T11:56:17.626Z,99.90
2022-11-13T11:58:59.021Z,99.90
2022-11-13T12:02:02.443Z,99.90
2022-11-13T12:05:06.971Z,99.90
2022-11-13T12:07:39.958Z,99.90
2022-11-13T12:10:27.847Z,99.90
2022-11-13T12:12:57.932Z,99.90
2022-11-13T12:15:44.275Z,99.90
2022-11-13T12:18:29.815Z,99.90
2022-11-13T12:21:41.407Z,99.90
2022-11-13T12:24:45.913Z,99.90
2022-11-13T12:27:30.409Z,99.90
2022-11-13T12:30:13.978Z,99.90
2022-11-13T12:33:06.693Z,99.90
2022-11-13T12:35:33.406Z,99.90
2022-11-13T12:38:29.458Z,99.90
2022-11-13T12:41:33.080Z,99.90
2022-11-13T12:43:59.745Z,99.90
2022-11-13T12:46:40.560Z,99.90
2022-11-13T12:49:35.246Z,99.90
2022-11-13T12:52:04.686Z,99.90
2022-11-13T12:54:37.947Z,99.90
2022-11-13T12:57:07.891Z,99.90
2022-11-13T12:59:37.859Z,99.90
2022-11-13T13:02:04.478Z,99.90
2022-11-13T13:04:50.055Z,99.90
2022-11-13T13:07:46.524Z,99.90
2022-11-13T13:10:50.275Z,99.90
2022-11-13T13:13:24.424Z,99.90
2022-11-13T13:15:58.438Z,99.90
2022-11-13T13:18:31.965Z,99.90
2022-11-13T13:21:01.816Z,99.90
2022-11-13T13:23:31.660Z,99.90
2022-11-13T13:26:17.704Z,99.90
2022-11-13T13:28:52.277Z,99.90
2022-11-13T13:31:25.907Z,99.90
2022-11-13T13:34:04.264Z,99.90
2022-11-13T13:36:46.294Z,99.90
2022-11-13T13:39:27.081Z,99.90
2022-11-13T13:42:15.691Z,99.90
2022-11-13T13:44:51.174Z,99.90
2022-11-13T13:47:29.806Z,99.90
2022-11-13T13:49:57.711Z,99.90
2022-11-13T13:52:32.934Z,99.90
2022-11-13T13:55:03.811Z,99.90
2022-11-13T13:57:30.921Z,99.90
2022-11-13T13:59:58.153Z,99.90
2022-11-13T14:02:24.969Z,99.90
2022-11-13T14:04:54.411Z,99.90
2022-11-13T14:07:29.897Z,99.90
2022-11-13T14:10:17.428Z,99.90
2022-11-13T14:12:45.527Z,99.90
2022-11-13T14:15:27.389Z,99.90
2022-11-13T14:18:15.753Z,99.90
2022-11-13T14:20:46.616Z,99.90
2022-11-13T14:23:23.894Z,99.70
2022-11-13T14:25:51.711Z,99.60
2022-11-13T14:28:21.522Z,99.50
2022-11-13T14:31:02.597Z,99.70
2022-11-13T14:33:51.348Z,99.20
2022-11-13T14:36:27.623Z,99.00
2022-11-13T14:38:54.518Z,98.80
2022-11-13T14:41:30.330Z,98.60
2022-11-13T14:43:57.099Z,98.10
2022-11-13T14:46:30.239Z,97.70
2022-11-13T14:48:57.777Z,97.80
2022-11-13T14:51:33.211Z,97.90
2022-11-13T14:54:06.247Z,98.00
2022-11-13T14:56:41.342Z,97.40
2022-11-13T14:59:19.886Z,97.60
2022-11-13T15:01:57.606Z,98.60
2022-11-13T15:04:25.210Z,98.80
2022-11-13T15:06:55.849Z,98.70
2022-11-13T15:09:25.149Z,98.70
2022-11-13T15:11:52.130Z,98.70
2022-11-13T15:14:20.292Z,98.70
2022-11-13T15:16:48.773Z,98.10
2022-11-13T15:19:27.429Z,98.20
2022-11-13T15:22:25.118Z,98.10
2022-11-13T15:24:42.081Z,98.30
2022-11-13T15:27:17.010Z,98.50
2022-11-13T15:29:44.576Z,99.20
2022-11-13T15:32:13.064Z,99.70
2022-11-13T15:34:39.832Z,99.70
2022-11-13T15:37:15.346Z,99.70
2022-11-13T15:39:42.362Z,99.60
2022-11-13T15:42:14.908Z,99.90
2022-11-13T15:44:41.688Z,99.90
2022-11-13T15:47:30.182Z,99.80
2022-11-13T15:50:12.737Z,99.90
2022-11-13T15:52:44.003Z,99.90
2022-11-13T15:55:21.084Z,99.90
2022-11-13T15:57:48.208Z,99.90
2022-11-13T16:00:26.731Z,99.90
2022-11-13T16:02:55.935Z,99.90
2022-11-13T16:05:25.504Z,99.90
2022-11-13T16:07:53.436Z,99.90
2022-11-13T16:10:21.734Z,99.90
2022-11-13T16:12:48.849Z,99.90
2022-11-13T16:15:17.147Z,99.90
2022-11-13T16:17:50.837Z,99.90
2022-11-13T16:20:18.752Z,99.90
2022-11-13T16:22:45.882Z,99.90
2022-11-13T16:25:15.738Z,99.90
2022-11-13T16:27:42.735Z,99.90
2022-11-13T16:30:15.299Z,99.90
2022-11-13T16:32:42.110Z,99.90
2022-11-13T16:35:15.264Z,99.90
2022-11-13T16:37:42.438Z,99.90
2022-11-13T16:40:22.707Z,99.90
2022-11-13T16:42:49.522Z,99.90
2022-11-13T16:45:16.395Z,99.90
2022-11-13T16:47:43.235Z,99.90
2022-11-13T16:50:24.093Z,99.90
2022-11-13T16:52:51.169Z,99.90
2022-11-13T16:55:18.028Z,99.90
2022-11-13T16:57:44.937Z,99.90
2022-11-13T17:00:16.038Z,99.90
2022-11-13T17:02:43.240Z,99.90
2022-11-13T17:05:14.753Z,99.90
2022-11-13T17:07:41.674Z,99.90
2022-11-13T17:10:32.610Z,99.90
2022-11-13T17:13:00.202Z,99.90
2022-11-13T17:15:27.016Z,99.90
2022-11-13T17:17:57.235Z,99.90
2022-11-13T17:20:24.455Z,99.90
2022-11-13T17:22:51.174Z,99.90
2022-11-13T17:25:18.899Z,99.90
2022-11-13T17:27:45.665Z,99.90
2022-11-13T17:30:13.485Z,99.90
2022-11-13T17:32:40.428Z,99.90
2022-11-13T17:35:07.396Z,99.90
2022-11-13T17:37:34.302Z,99.90
2022-11-13T17:40:01.257Z,99.90
2022-11-13T17:42:28.708Z,99.90
2022-11-13T17:44:55.878Z,99.90
2022-11-13T17:47:22.946Z,99.90
2022-11-13T17:49:49.737Z,99.90
2022-11-13T17:52:16.503Z,99.90
2022-11-13T17:54:43.262Z,99.90
2022-11-13T17:57:10.324Z,99.90
2022-11-13T17:59:37.268Z,99.90
2022-11-13T18:02:09.112Z,99.90
2022-11-13T18:04:35.923Z,99.90
2022-11-13T18:07:03.001Z,99.90
2022-11-13T18:09:29.841Z,99.90
2022-11-13T18:11:56.520Z,99.90
2022-11-13T18:14:23.194Z,99.90
2022-11-13T18:16:49.950Z,99.90
2022-11-13T18:19:16.701Z,99.90
2022-11-13T18:21:44.001Z,99.90
2022-11-13T18:24:16.057Z,99.90
2022-11-13T18:26:42.810Z,99.90
2022-11-13T18:29:10.118Z,99.90
2022-11-13T18:31:37.391Z,99.90
2022-11-13T18:34:05.781Z,99.90
2022-11-13T18:36:34.615Z,99.90
2022-11-13T18:39:03.199Z,99.90
2022-11-13T18:41:30.930Z,99.90
2022-11-13T18:43:57.771Z,99.90
2022-11-13T18:46:24.552Z,99.90
2022-11-13T18:48:51.414Z,99.90
2022-11-13T18:51:20.774Z,99.90
2022-11-13T18:53:49.359Z,99.90
2022-11-13T18:56:19.544Z,99.90
2022-11-13T18:58:47.432Z,99.90
2022-11-13T19:01:28.480Z,99.90
2022-11-13T19:06:43.758Z,99.90
2022-11-13T19:09:15.622Z,99.90
2022-11-13T19:11:43.955Z,99.90
2022-11-13T19:14:14.259Z,99.90
2022-11-13T19:16:41.166Z,99.90
2022-11-13T19:19:20.242Z,99.90
2022-11-13T19:21:47.945Z,99.90
2022-11-13T19:24:15.185Z,99.90
2022-11-13T19:26:43.389Z,99.90
2022-11-13T19:29:10.663Z,99.90
2022-11-13T19:31:37.624Z,99.90
2022-11-13T19:34:07.116Z,99.90
2022-11-13T19:36:34.989Z,99.90
2022-11-13T19:39:02.122Z,99.90
2022-11-13T19:41:29.607Z,99.90
2022-11-13T19:43:58.290Z,99.90
2022-11-13T19:46:25.472Z,99.90
2022-11-13T19:48:52.890Z,99.90
2022-11-13T19:51:24.337Z,99.90
2022-11-13T19:53:56.036Z,99.90
2022-11-13T19:56:24.337Z,99.90
2022-11-13T19:58:51.824Z,99.90
2022-11-13T20:01:21.737Z,99.90
2022-11-13T20:03:52.763Z,99.90
2022-11-13T20:06:19.700Z,99.90
2022-11-13T20:08:46.474Z,99.90
2022-11-13T20:11:16.712Z,99.90
2022-11-13T20:13:44.571Z,99.90
2022-11-13T20:16:14.134Z,99.90
2022-11-13T20:18:42.101Z,99.90
2022-11-13T20:21:09.552Z,99.90
2022-11-13T20:23:36.572Z,99.90
2022-11-13T20:26:07.166Z,99.90
2022-11-13T20:28:34.893Z,99.90
2022-11-13T20:31:11.987Z,99.90
2022-11-13T20:33:39.220Z,99.90
2022-11-13T20:36:06.462Z,99.90
2022-11-13T20:38:33.245Z,99.90
2022-11-13T20:41:04.898Z,99.90
2022-11-13T20:43:31.738Z,99.90
2022-11-13T20:46:10.578Z,99.90
2022-11-13T20:48:37.870Z,99.90
2022-11-13T20:51:13.316Z,99.90
2022-11-13T20:53:40.462Z,99.90
2022-11-13T20:56:10.514Z,99.90
2022-11-13T20:58:37.858Z,99.90
2022-11-13T21:01:05.693Z,99.90
2022-11-13T21:03:37.117Z,99.90
2022-11-13T21:06:07.115Z,99.90
2022-11-13T21:08:34.113Z,99.90
2022-11-13T21:11:02.219Z,99.90
2022-11-13T21:13:28.900Z,99.90
2022-11-13T21:15:55.790Z,99.90
2022-11-13T21:18:22.548Z,99.90
2022-11-13T21:20:49.759Z,99.90
2022-11-13T21:23:16.491Z,99.90
2022-11-13T21:25:43.227Z,99.90
2022-11-13T21:28:09.926Z,99.90
2022-11-13T21:30:36.654Z,99.90
2022-11-13T21:33:03.429Z,99.90
2022-11-13T21:35:30.247Z,99.90
2022-11-13T21:37:56.964Z,99.90
2022-11-13T21:40:23.649Z,99.90
2022-11-13T21:42:50.348Z,99.90
2022-11-13T21:45:17.130Z,99.90
2022-11-13T21:47:43.767Z,99.90
2022-11-13T21:50:10.637Z,99.90
2022-11-13T21:52:37.270Z,99.90
2022-11-13T21:55:05.612Z,99.90
2022-11-13T21:57:32.263Z,99.90
2022-11-13T21:59:58.877Z,99.90
2022-11-13T22:02:25.662Z,99.90
2022-11-13T22:04:52.433Z,99.90
2022-11-13T22:07:19.221Z,99.90
2022-11-13T22:09:46.006Z,99.90
2022-11-13T22:12:12.828Z,99.90
2022-11-13T22:14:39.583Z,99.90
2022-11-13T22:17:06.258Z,99.90
2022-11-13T22:19:36.243Z,99.90
2022-11-13T22:22:03.244Z,99.90
2022-11-13T22:24:30.753Z,99.90
2022-11-13T22:26:57.456Z,99.90
2022-11-13T22:29:24.053Z,99.90
2022-11-13T22:31:50.798Z,99.90
2022-11-13T22:34:18.199Z,99.90
2022-11-13T22:36:44.849Z,99.90
2022-11-13T22:39:11.516Z,99.90
2022-11-13T22:41:38.247Z,99.90
2022-11-13T22:44:11.600Z,99.90
2022-11-13T22:46:38.268Z,99.90
2022-11-13T22:49:06.119Z,99.90
2022-11-13T22:51:38.501Z,99.90
2022-11-13T22:54:10.597Z,99.90
2022-11-13T22:56:39.422Z,99.90
2022-11-13T22:59:07.602Z,99.90
2022-11-13T23:01:36.612Z,99.90
2022-11-13T23:04:11.474Z,99.90
2022-11-13T23:06:38.207Z,99.90
2022-11-13T23:09:06.257Z,99.90
2022-11-13T23:11:37.830Z,99.90
2022-11-13T23:14:06.057Z,99.90
2022-11-13T23:16:33.560Z,99.90
2022-11-13T23:19:01.294Z,99.90
2022-11-13T23:21:29.300Z,99.90
2022-11-13T23:23:57.261Z,99.90
2022-11-13T23:26:24.948Z,99.90
2022-11-13T23:28:52.022Z,99.90
2022-11-13T23:31:18.687Z,99.90
2022-11-13T23:33:45.450Z,99.90
2022-11-13T23:36:14.244Z,99.90
2022-11-13T23:38:41.659Z,99.90
2022-11-13T23:41:10.113Z,99.90
2022-11-13T23:44:07.059Z,99.90
2022-11-13T23:46:23.593Z,99.90
2022-11-13T23:48:50.207Z,99.90
2022-11-13T23:51:16.810Z,99.90
2022-11-13T23:53:43.435Z,99.90
2022-11-13T23:56:11.132Z,99.90
2022-11-13T23:58:37.766Z,99.90
